Terminal Aerodrome Forecast
Issued by NWS Twin Cities, MN

Home | Current Version | Previous Version | Graphics & Text | Print | Product List | Glossary On
Versions: 1 2 3 4 5 6 7 8 9 10 11 12 13 14 15 16 17 18 19 20 21 22 23 24 25 26
000
FTUS43 KMPX 012058 AAA
TAFMSP
TAF AMD
KMSP 012058Z 0121/0224 24008KT P6SM SCT120
     FM020100 19007KT P6SM VCTS FEW060CB BKN100
     FM020500 20006KT P6SM SCT100
     FM021500 27010KT P6SM VCSH SCT060
     FM021900 31015G23KT P6SM FEW070=

USA.gov is the U.S. government's official web portal to all federal, state and local government web resources and services.